<?xml version="1.0" encoding="UTF-8" standalone="no" ?>
<gpx xmlns="http://www.topografix.com/GPX/1/1" xmlns:xsi="http://www.w3.org/2001/XMLSchema-instance" xsi:schemaLocation="http://www.topografix.com/GPX/1/1 http://www.topografix.com/GPX/1/1/gpx.xsd" version="1.1" creator="VisuGPX - https://www.visugpx.com">
  <metadata>
    <name>180906 - Douvres-Mathieu-Biéville-Blainville-Pégasus-Ouistreham</name>
    <desc><![CDATA[Circuit en handbike du 6 septembre 2018]]></desc>
  </metadata>
  <trk>
    <name><![CDATA[180906 - Douvres-Mathieu-Biéville-Blainville-Pégasus-Ouistreham]]></name>
    <trkseg>
      <trkpt lat="49.32663" lon="-0.38085">
        <ele>63.58</ele>
        <time>2018-09-06T11:28:03Z</time>
      </trkpt>
      <trkpt lat="49.32604" lon="-0.38131">
        <ele>-3.71</ele>
        <time>2018-09-06T11:32:31Z</time>
      </trkpt>
      <trkpt lat="49.32575" lon="-0.38148">
        <ele>-3.23</ele>
        <time>2018-09-06T11:32:39Z</time>
      </trkpt>
      <trkpt lat="49.32446" lon="-0.38196">
        <ele>-0.82</ele>
        <time>2018-09-06T11:33:14Z</time>
      </trkpt>
      <trkpt lat="49.32441" lon="-0.38182">
        <ele>6.87</ele>
        <time>2018-09-06T11:33:36Z</time>
      </trkpt>
      <trkpt lat="49.32406" lon="-0.38102">
        <ele>9.27</ele>
        <time>2018-09-06T11:33:54Z</time>
      </trkpt>
      <trkpt lat="49.32396" lon="-0.38078">
        <ele>9.27</ele>
        <time>2018-09-06T11:34:05Z</time>
      </trkpt>
      <trkpt lat="49.32378" lon="-0.3804">
        <ele>9.27</ele>
        <time>2018-09-06T11:34:23Z</time>
      </trkpt>
      <trkpt lat="49.3231" lon="-0.37904">
        <ele>9.27</ele>
        <time>2018-09-06T11:34:45Z</time>
      </trkpt>
      <trkpt lat="49.32301" lon="-0.37885">
        <ele>9.27</ele>
        <time>2018-09-06T11:34:48Z</time>
      </trkpt>
      <trkpt lat="49.32247" lon="-0.37768">
        <ele>9.27</ele>
        <time>2018-09-06T11:35:07Z</time>
      </trkpt>
      <trkpt lat="49.32169" lon="-0.37621">
        <ele>6.87</ele>
        <time>2018-09-06T11:35:29Z</time>
      </trkpt>
      <trkpt lat="49.32164" lon="-0.37615">
        <ele>6.87</ele>
        <time>2018-09-06T11:35:30Z</time>
      </trkpt>
      <trkpt lat="49.32066" lon="-0.37483">
        <ele>4.94</ele>
        <time>2018-09-06T11:35:52Z</time>
      </trkpt>
      <trkpt lat="49.32012" lon="-0.37395">
        <ele>5.42</ele>
        <time>2018-09-06T11:36:09Z</time>
      </trkpt>
      <trkpt lat="49.31953" lon="-0.37343">
        <ele>6.87</ele>
        <time>2018-09-06T11:36:25Z</time>
      </trkpt>
      <trkpt lat="49.31938" lon="-0.37328">
        <ele>7.35</ele>
        <time>2018-09-06T11:36:29Z</time>
      </trkpt>
      <trkpt lat="49.31916" lon="-0.37316">
        <ele>7.35</ele>
        <time>2018-09-06T11:36:33Z</time>
      </trkpt>
      <trkpt lat="49.319" lon="-0.37313">
        <ele>7.35</ele>
        <time>2018-09-06T11:36:36Z</time>
      </trkpt>
      <trkpt lat="49.31793" lon="-0.37351">
        <ele>8.79</ele>
        <time>2018-09-06T11:36:57Z</time>
      </trkpt>
      <trkpt lat="49.31736" lon="-0.37351">
        <ele>8.79</ele>
        <time>2018-09-06T11:37:14Z</time>
      </trkpt>
      <trkpt lat="49.31636" lon="-0.37328">
        <ele>9.75</ele>
        <time>2018-09-06T11:37:38Z</time>
      </trkpt>
      <trkpt lat="49.31502" lon="-0.37305">
        <ele>11.19</ele>
        <time>2018-09-06T11:38:06Z</time>
      </trkpt>
      <trkpt lat="49.31386" lon="-0.37275">
        <ele>13.12</ele>
        <time>2018-09-06T11:38:30Z</time>
      </trkpt>
      <trkpt lat="49.31251" lon="-0.3724">
        <ele>14.08</ele>
        <time>2018-09-06T11:38:58Z</time>
      </trkpt>
      <trkpt lat="49.31149" lon="-0.37253">
        <ele>16.48</ele>
        <time>2018-09-06T11:39:20Z</time>
      </trkpt>
      <trkpt lat="49.3104" lon="-0.37293">
        <ele>18.88</ele>
        <time>2018-09-06T11:39:45Z</time>
      </trkpt>
      <trkpt lat="49.30948" lon="-0.37326">
        <ele>20.81</ele>
        <time>2018-09-06T11:40:03Z</time>
      </trkpt>
      <trkpt lat="49.3084" lon="-0.37363">
        <ele>21.29</ele>
        <time>2018-09-06T11:40:22Z</time>
      </trkpt>
      <trkpt lat="49.30707" lon="-0.37409">
        <ele>22.25</ele>
        <time>2018-09-06T11:40:44Z</time>
      </trkpt>
      <trkpt lat="49.3058" lon="-0.37454">
        <ele>22.73</ele>
        <time>2018-09-06T11:41:05Z</time>
      </trkpt>
      <trkpt lat="49.30456" lon="-0.37496">
        <ele>22.25</ele>
        <time>2018-09-06T11:41:26Z</time>
      </trkpt>
      <trkpt lat="49.30337" lon="-0.37537">
        <ele>22.73</ele>
        <time>2018-09-06T11:41:46Z</time>
      </trkpt>
      <trkpt lat="49.30222" lon="-0.37577">
        <ele>24.17</ele>
        <time>2018-09-06T11:42:07Z</time>
      </trkpt>
      <trkpt lat="49.30159" lon="-0.376">
        <ele>24.17</ele>
        <time>2018-09-06T11:42:24Z</time>
      </trkpt>
      <trkpt lat="49.30142" lon="-0.37622">
        <ele>24.17</ele>
        <time>2018-09-06T11:42:41Z</time>
      </trkpt>
      <trkpt lat="49.30103" lon="-0.37713">
        <ele>24.65</ele>
        <time>2018-09-06T11:42:56Z</time>
      </trkpt>
      <trkpt lat="49.3007" lon="-0.37792">
        <ele>24.65</ele>
        <time>2018-09-06T11:43:16Z</time>
      </trkpt>
      <trkpt lat="49.30063" lon="-0.37818">
        <ele>26.09</ele>
        <time>2018-09-06T11:43:31Z</time>
      </trkpt>
      <trkpt lat="49.30023" lon="-0.37943">
        <ele>27.05</ele>
        <time>2018-09-06T11:43:49Z</time>
      </trkpt>
      <trkpt lat="49.29977" lon="-0.3807">
        <ele>26.57</ele>
        <time>2018-09-06T11:44:09Z</time>
      </trkpt>
      <trkpt lat="49.29968" lon="-0.38094">
        <ele>26.09</ele>
        <time>2018-09-06T11:44:20Z</time>
      </trkpt>
      <trkpt lat="49.29946" lon="-0.38101">
        <ele>27.05</ele>
        <time>2018-09-06T11:44:37Z</time>
      </trkpt>
      <trkpt lat="49.29913" lon="-0.38123">
        <ele>27.53</ele>
        <time>2018-09-06T11:44:50Z</time>
      </trkpt>
      <trkpt lat="49.29905" lon="-0.38137">
        <ele>27.53</ele>
        <time>2018-09-06T11:44:55Z</time>
      </trkpt>
      <trkpt lat="49.29835" lon="-0.38119">
        <ele>27.05</ele>
        <time>2018-09-06T11:45:14Z</time>
      </trkpt>
      <trkpt lat="49.29735" lon="-0.38082">
        <ele>26.09</ele>
        <time>2018-09-06T11:45:38Z</time>
      </trkpt>
      <trkpt lat="49.29721" lon="-0.38078">
        <ele>26.09</ele>
        <time>2018-09-06T11:45:41Z</time>
      </trkpt>
      <trkpt lat="49.29672" lon="-0.38057">
        <ele>25.13</ele>
        <time>2018-09-06T11:45:55Z</time>
      </trkpt>
      <trkpt lat="49.29623" lon="-0.38036">
        <ele>23.21</ele>
        <time>2018-09-06T11:46:12Z</time>
      </trkpt>
      <trkpt lat="49.2961" lon="-0.38033">
        <ele>22.73</ele>
        <time>2018-09-06T11:46:17Z</time>
      </trkpt>
      <trkpt lat="49.29595" lon="-0.38054">
        <ele>22.73</ele>
        <time>2018-09-06T11:46:24Z</time>
      </trkpt>
      <trkpt lat="49.29554" lon="-0.38173">
        <ele>23.21</ele>
        <time>2018-09-06T11:46:44Z</time>
      </trkpt>
      <trkpt lat="49.29509" lon="-0.38285">
        <ele>23.21</ele>
        <time>2018-09-06T11:47:02Z</time>
      </trkpt>
      <trkpt lat="49.29457" lon="-0.38392">
        <ele>22.73</ele>
        <time>2018-09-06T11:47:21Z</time>
      </trkpt>
      <trkpt lat="49.29368" lon="-0.38538">
        <ele>20.81</ele>
        <time>2018-09-06T11:47:49Z</time>
      </trkpt>
      <trkpt lat="49.29344" lon="-0.38591">
        <ele>21.77</ele>
        <time>2018-09-06T11:47:57Z</time>
      </trkpt>
      <trkpt lat="49.29341" lon="-0.38605">
        <ele>21.77</ele>
        <time>2018-09-06T11:47:59Z</time>
      </trkpt>
      <trkpt lat="49.29297" lon="-0.38721">
        <ele>24.17</ele>
        <time>2018-09-06T11:48:19Z</time>
      </trkpt>
      <trkpt lat="49.29291" lon="-0.38732">
        <ele>24.65</ele>
        <time>2018-09-06T11:48:21Z</time>
      </trkpt>
      <trkpt lat="49.29215" lon="-0.38843">
        <ele>22.73</ele>
        <time>2018-09-06T11:48:45Z</time>
      </trkpt>
      <trkpt lat="49.29192" lon="-0.38865">
        <ele>22.25</ele>
        <time>2018-09-06T11:48:56Z</time>
      </trkpt>
      <trkpt lat="49.29189" lon="-0.38833">
        <ele>20.81</ele>
        <time>2018-09-06T11:49:03Z</time>
      </trkpt>
      <trkpt lat="49.29189" lon="-0.38827">
        <ele>20.81</ele>
        <time>2018-09-06T11:49:04Z</time>
      </trkpt>
      <trkpt lat="49.29169" lon="-0.38705">
        <ele>20.32</ele>
        <time>2018-09-06T11:49:23Z</time>
      </trkpt>
      <trkpt lat="49.2917" lon="-0.38651">
        <ele>19.84</ele>
        <time>2018-09-06T11:49:31Z</time>
      </trkpt>
      <trkpt lat="49.2917" lon="-0.38636">
        <ele>19.84</ele>
        <time>2018-09-06T11:49:33Z</time>
      </trkpt>
      <trkpt lat="49.29139" lon="-0.38537">
        <ele>18.88</ele>
        <time>2018-09-06T11:49:50Z</time>
      </trkpt>
      <trkpt lat="49.29109" lon="-0.38435">
        <ele>20.32</ele>
        <time>2018-09-06T11:50:05Z</time>
      </trkpt>
      <trkpt lat="49.29089" lon="-0.3834">
        <ele>23.21</ele>
        <time>2018-09-06T11:50:22Z</time>
      </trkpt>
      <trkpt lat="49.29109" lon="-0.3831">
        <ele>23.21</ele>
        <time>2018-09-06T11:50:30Z</time>
      </trkpt>
      <trkpt lat="49.29105" lon="-0.38296">
        <ele>23.21</ele>
        <time>2018-09-06T11:50:35Z</time>
      </trkpt>
      <trkpt lat="49.29075" lon="-0.38275">
        <ele>24.17</ele>
        <time>2018-09-06T11:50:45Z</time>
      </trkpt>
      <trkpt lat="49.29054" lon="-0.38289">
        <ele>25.61</ele>
        <time>2018-09-06T11:50:51Z</time>
      </trkpt>
      <trkpt lat="49.28977" lon="-0.38384">
        <ele>28.02</ele>
        <time>2018-09-06T11:51:14Z</time>
      </trkpt>
      <trkpt lat="49.28921" lon="-0.38431">
        <ele>28.02</ele>
        <time>2018-09-06T11:51:30Z</time>
      </trkpt>
      <trkpt lat="49.28877" lon="-0.38368">
        <ele>28.98</ele>
        <time>2018-09-06T11:51:47Z</time>
      </trkpt>
      <trkpt lat="49.28827" lon="-0.38246">
        <ele>31.86</ele>
        <time>2018-09-06T11:52:08Z</time>
      </trkpt>
      <trkpt lat="49.28815" lon="-0.38214">
        <ele>31.86</ele>
        <time>2018-09-06T11:52:13Z</time>
      </trkpt>
      <trkpt lat="49.288" lon="-0.38195">
        <ele>32.82</ele>
        <time>2018-09-06T11:52:17Z</time>
      </trkpt>
      <trkpt lat="49.28655" lon="-0.38199">
        <ele>39.07</ele>
        <time>2018-09-06T11:52:47Z</time>
      </trkpt>
      <trkpt lat="49.2865" lon="-0.38196">
        <ele>39.07</ele>
        <time>2018-09-06T11:52:48Z</time>
      </trkpt>
      <trkpt lat="49.28486" lon="-0.38107">
        <ele>45.32</ele>
        <time>2018-09-06T11:53:24Z</time>
      </trkpt>
      <trkpt lat="49.28407" lon="-0.3806">
        <ele>47.24</ele>
        <time>2018-09-06T11:53:43Z</time>
      </trkpt>
      <trkpt lat="49.28407" lon="-0.38058">
        <ele>47.24</ele>
        <time>2018-09-06T11:54:18Z</time>
      </trkpt>
      <trkpt lat="49.28367" lon="-0.38065">
        <ele>47.72</ele>
        <time>2018-09-06T11:54:31Z</time>
      </trkpt>
      <trkpt lat="49.28245" lon="-0.38091">
        <ele>49.16</ele>
        <time>2018-09-06T11:54:53Z</time>
      </trkpt>
      <trkpt lat="49.28108" lon="-0.38056">
        <ele>48.68</ele>
        <time>2018-09-06T11:55:15Z</time>
      </trkpt>
      <trkpt lat="49.27961" lon="-0.38014">
        <ele>48.68</ele>
        <time>2018-09-06T11:55:39Z</time>
      </trkpt>
      <trkpt lat="49.27827" lon="-0.37978">
        <ele>49.16</ele>
        <time>2018-09-06T11:56:01Z</time>
      </trkpt>
      <trkpt lat="49.27659" lon="-0.37929">
        <ele>46.28</ele>
        <time>2018-09-06T11:56:29Z</time>
      </trkpt>
      <trkpt lat="49.27593" lon="-0.37915">
        <ele>45.32</ele>
        <time>2018-09-06T11:56:42Z</time>
      </trkpt>
      <trkpt lat="49.27566" lon="-0.37913">
        <ele>43.88</ele>
        <time>2018-09-06T11:56:55Z</time>
      </trkpt>
      <trkpt lat="49.27566" lon="-0.37913">
        <ele>43.88</ele>
        <time>2018-09-06T11:56:59Z</time>
      </trkpt>
      <trkpt lat="49.27565" lon="-0.37901">
        <ele>44.84</ele>
        <time>2018-09-06T11:57:03Z</time>
      </trkpt>
      <trkpt lat="49.2757" lon="-0.3788">
        <ele>44.36</ele>
        <time>2018-09-06T11:57:16Z</time>
      </trkpt>
      <trkpt lat="49.27553" lon="-0.37826">
        <ele>44.36</ele>
        <time>2018-09-06T11:57:27Z</time>
      </trkpt>
      <trkpt lat="49.27551" lon="-0.37805">
        <ele>43.88</ele>
        <time>2018-09-06T11:57:31Z</time>
      </trkpt>
      <trkpt lat="49.27547" lon="-0.378">
        <ele>44.36</ele>
        <time>2018-09-06T11:57:43Z</time>
      </trkpt>
      <trkpt lat="49.2752" lon="-0.37799">
        <ele>43.88</ele>
        <time>2018-09-06T11:58:01Z</time>
      </trkpt>
      <trkpt lat="49.27481" lon="-0.37837">
        <ele>42.92</ele>
        <time>2018-09-06T11:58:15Z</time>
      </trkpt>
      <trkpt lat="49.27478" lon="-0.37839">
        <ele>42.92</ele>
        <time>2018-09-06T11:58:16Z</time>
      </trkpt>
      <trkpt lat="49.2741" lon="-0.37822">
        <ele>42.92</ele>
        <time>2018-09-06T11:58:29Z</time>
      </trkpt>
      <trkpt lat="49.27264" lon="-0.37781">
        <ele>43.88</ele>
        <time>2018-09-06T11:58:54Z</time>
      </trkpt>
      <trkpt lat="49.2711" lon="-0.37738">
        <ele>43.88</ele>
        <time>2018-09-06T11:59:20Z</time>
      </trkpt>
      <trkpt lat="49.2696" lon="-0.37697">
        <ele>45.8</ele>
        <time>2018-09-06T11:59:44Z</time>
      </trkpt>
      <trkpt lat="49.26851" lon="-0.37688">
        <ele>46.76</ele>
        <time>2018-09-06T12:00:04Z</time>
      </trkpt>
      <trkpt lat="49.26817" lon="-0.3769">
        <ele>45.8</ele>
        <time>2018-09-06T12:00:13Z</time>
      </trkpt>
      <trkpt lat="49.26789" lon="-0.3769">
        <ele>45.32</ele>
        <time>2018-09-06T12:00:22Z</time>
      </trkpt>
      <trkpt lat="49.26766" lon="-0.37675">
        <ele>46.28</ele>
        <time>2018-09-06T12:00:27Z</time>
      </trkpt>
      <trkpt lat="49.266" lon="-0.37626">
        <ele>47.72</ele>
        <time>2018-09-06T12:00:55Z</time>
      </trkpt>
      <trkpt lat="49.26448" lon="-0.37589">
        <ele>47.72</ele>
        <time>2018-09-06T12:01:19Z</time>
      </trkpt>
      <trkpt lat="49.26397" lon="-0.37576">
        <ele>48.68</ele>
        <time>2018-09-06T12:01:28Z</time>
      </trkpt>
      <trkpt lat="49.26389" lon="-0.37602">
        <ele>48.2</ele>
        <time>2018-09-06T12:01:30Z</time>
      </trkpt>
      <trkpt lat="49.26369" lon="-0.37637">
        <ele>48.68</ele>
        <time>2018-09-06T12:01:34Z</time>
      </trkpt>
      <trkpt lat="49.26237" lon="-0.37574">
        <ele>48.2</ele>
        <time>2018-09-06T12:01:55Z</time>
      </trkpt>
      <trkpt lat="49.26104" lon="-0.37514">
        <ele>48.68</ele>
        <time>2018-09-06T12:02:19Z</time>
      </trkpt>
      <trkpt lat="49.25992" lon="-0.37478">
        <ele>46.76</ele>
        <time>2018-09-06T12:02:40Z</time>
      </trkpt>
      <trkpt lat="49.25828" lon="-0.37433">
        <ele>45.32</ele>
        <time>2018-09-06T12:03:06Z</time>
      </trkpt>
      <trkpt lat="49.25746" lon="-0.37402">
        <ele>44.36</ele>
        <time>2018-09-06T12:03:23Z</time>
      </trkpt>
      <trkpt lat="49.25636" lon="-0.37368">
        <ele>42.44</ele>
        <time>2018-09-06T12:03:46Z</time>
      </trkpt>
      <trkpt lat="49.25552" lon="-0.37346">
        <ele>41.47</ele>
        <time>2018-09-06T12:04:05Z</time>
      </trkpt>
      <trkpt lat="49.25524" lon="-0.37337">
        <ele>41.95</ele>
        <time>2018-09-06T12:04:19Z</time>
      </trkpt>
      <trkpt lat="49.25519" lon="-0.37331">
        <ele>41.47</ele>
        <time>2018-09-06T12:04:22Z</time>
      </trkpt>
      <trkpt lat="49.25522" lon="-0.37309">
        <ele>40.99</ele>
        <time>2018-09-06T12:04:29Z</time>
      </trkpt>
      <trkpt lat="49.25528" lon="-0.37297">
        <ele>40.99</ele>
        <time>2018-09-06T12:04:32Z</time>
      </trkpt>
      <trkpt lat="49.25524" lon="-0.37284">
        <ele>39.55</ele>
        <time>2018-09-06T12:04:36Z</time>
      </trkpt>
      <trkpt lat="49.25527" lon="-0.37278">
        <ele>39.55</ele>
        <time>2018-09-06T12:04:37Z</time>
      </trkpt>
      <trkpt lat="49.25541" lon="-0.37245">
        <ele>39.55</ele>
        <time>2018-09-06T12:04:42Z</time>
      </trkpt>
      <trkpt lat="49.2554" lon="-0.37215">
        <ele>40.51</ele>
        <time>2018-09-06T12:04:47Z</time>
      </trkpt>
      <trkpt lat="49.25499" lon="-0.37164">
        <ele>40.51</ele>
        <time>2018-09-06T12:04:59Z</time>
      </trkpt>
      <trkpt lat="49.25455" lon="-0.37034">
        <ele>39.55</ele>
        <time>2018-09-06T12:05:18Z</time>
      </trkpt>
      <trkpt lat="49.25443" lon="-0.36953">
        <ele>40.03</ele>
        <time>2018-09-06T12:05:31Z</time>
      </trkpt>
      <trkpt lat="49.25422" lon="-0.36913">
        <ele>41.47</ele>
        <time>2018-09-06T12:05:38Z</time>
      </trkpt>
      <trkpt lat="49.25351" lon="-0.36825">
        <ele>41.95</ele>
        <time>2018-09-06T12:05:58Z</time>
      </trkpt>
      <trkpt lat="49.25283" lon="-0.36765">
        <ele>44.36</ele>
        <time>2018-09-06T12:06:17Z</time>
      </trkpt>
      <trkpt lat="49.25146" lon="-0.36635">
        <ele>44.84</ele>
        <time>2018-09-06T12:06:48Z</time>
      </trkpt>
      <trkpt lat="49.25124" lon="-0.36594">
        <ele>43.88</ele>
        <time>2018-09-06T12:06:55Z</time>
      </trkpt>
      <trkpt lat="49.25088" lon="-0.36472">
        <ele>44.36</ele>
        <time>2018-09-06T12:07:15Z</time>
      </trkpt>
      <trkpt lat="49.25005" lon="-0.36343">
        <ele>44.36</ele>
        <time>2018-09-06T12:07:39Z</time>
      </trkpt>
      <trkpt lat="49.24937" lon="-0.36237">
        <ele>45.32</ele>
        <time>2018-09-06T12:07:59Z</time>
      </trkpt>
      <trkpt lat="49.24895" lon="-0.36157">
        <ele>44.36</ele>
        <time>2018-09-06T12:08:14Z</time>
      </trkpt>
      <trkpt lat="49.24816" lon="-0.35957">
        <ele>41.95</ele>
        <time>2018-09-06T12:08:39Z</time>
      </trkpt>
      <trkpt lat="49.24755" lon="-0.35804">
        <ele>39.07</ele>
        <time>2018-09-06T12:08:56Z</time>
      </trkpt>
      <trkpt lat="49.24691" lon="-0.35648">
        <ele>35.71</ele>
        <time>2018-09-06T12:09:12Z</time>
      </trkpt>
      <trkpt lat="49.24619" lon="-0.3547">
        <ele>32.82</ele>
        <time>2018-09-06T12:09:28Z</time>
      </trkpt>
      <trkpt lat="49.24562" lon="-0.35311">
        <ele>33.78</ele>
        <time>2018-09-06T12:09:44Z</time>
      </trkpt>
      <trkpt lat="49.2447" lon="-0.34993">
        <ele>33.78</ele>
        <time>2018-09-06T12:10:19Z</time>
      </trkpt>
      <trkpt lat="49.24387" lon="-0.34621">
        <ele>32.82</ele>
        <time>2018-09-06T12:10:58Z</time>
      </trkpt>
      <trkpt lat="49.24345" lon="-0.34454">
        <ele>29.94</ele>
        <time>2018-09-06T12:11:14Z</time>
      </trkpt>
      <trkpt lat="49.24342" lon="-0.34443">
        <ele>29.94</ele>
        <time>2018-09-06T12:11:15Z</time>
      </trkpt>
      <trkpt lat="49.24317" lon="-0.34308">
        <ele>27.05</ele>
        <time>2018-09-06T12:11:26Z</time>
      </trkpt>
      <trkpt lat="49.24334" lon="-0.34114">
        <ele>26.09</ele>
        <time>2018-09-06T12:11:42Z</time>
      </trkpt>
      <trkpt lat="49.24364" lon="-0.33861">
        <ele>24.65</ele>
        <time>2018-09-06T12:12:07Z</time>
      </trkpt>
      <trkpt lat="49.24374" lon="-0.33635">
        <ele>23.69</ele>
        <time>2018-09-06T12:12:31Z</time>
      </trkpt>
      <trkpt lat="49.24366" lon="-0.33591">
        <ele>23.69</ele>
        <time>2018-09-06T12:12:36Z</time>
      </trkpt>
      <trkpt lat="49.24365" lon="-0.33543">
        <ele>23.69</ele>
        <time>2018-09-06T12:12:42Z</time>
      </trkpt>
      <trkpt lat="49.24369" lon="-0.33529">
        <ele>23.69</ele>
        <time>2018-09-06T12:12:44Z</time>
      </trkpt>
      <trkpt lat="49.24372" lon="-0.33497">
        <ele>23.21</ele>
        <time>2018-09-06T12:12:48Z</time>
      </trkpt>
      <trkpt lat="49.24357" lon="-0.33285">
        <ele>21.77</ele>
        <time>2018-09-06T12:13:14Z</time>
      </trkpt>
      <trkpt lat="49.24348" lon="-0.33122">
        <ele>21.29</ele>
        <time>2018-09-06T12:13:35Z</time>
      </trkpt>
      <trkpt lat="49.24371" lon="-0.32988">
        <ele>21.29</ele>
        <time>2018-09-06T12:13:54Z</time>
      </trkpt>
      <trkpt lat="49.24381" lon="-0.32897">
        <ele>19.84</ele>
        <time>2018-09-06T12:14:11Z</time>
      </trkpt>
      <trkpt lat="49.24366" lon="-0.32888">
        <ele>20.81</ele>
        <time>2018-09-06T12:14:18Z</time>
      </trkpt>
      <trkpt lat="49.24278" lon="-0.32792">
        <ele>20.81</ele>
        <time>2018-09-06T12:14:41Z</time>
      </trkpt>
      <trkpt lat="49.2427" lon="-0.32786">
        <ele>20.81</ele>
        <time>2018-09-06T12:14:43Z</time>
      </trkpt>
      <trkpt lat="49.24243" lon="-0.32756">
        <ele>20.81</ele>
        <time>2018-09-06T12:14:51Z</time>
      </trkpt>
      <trkpt lat="49.24254" lon="-0.32726">
        <ele>18.88</ele>
        <time>2018-09-06T12:14:58Z</time>
      </trkpt>
      <trkpt lat="49.24261" lon="-0.32718">
        <ele>18.4</ele>
        <time>2018-09-06T12:15:00Z</time>
      </trkpt>
      <trkpt lat="49.24281" lon="-0.32684">
        <ele>16</ele>
        <time>2018-09-06T12:15:05Z</time>
      </trkpt>
      <trkpt lat="49.24289" lon="-0.32667">
        <ele>15.04</ele>
        <time>2018-09-06T12:15:07Z</time>
      </trkpt>
      <trkpt lat="49.24315" lon="-0.32584">
        <ele>11.67</ele>
        <time>2018-09-06T12:15:15Z</time>
      </trkpt>
      <trkpt lat="49.24336" lon="-0.32531">
        <ele>11.67</ele>
        <time>2018-09-06T12:15:21Z</time>
      </trkpt>
      <trkpt lat="49.24329" lon="-0.32477">
        <ele>14.08</ele>
        <time>2018-09-06T12:15:29Z</time>
      </trkpt>
      <trkpt lat="49.2427" lon="-0.32442">
        <ele>15.52</ele>
        <time>2018-09-06T12:15:40Z</time>
      </trkpt>
      <trkpt lat="49.24242" lon="-0.32414">
        <ele>16.96</ele>
        <time>2018-09-06T12:15:46Z</time>
      </trkpt>
      <trkpt lat="49.24229" lon="-0.3234">
        <ele>18.4</ele>
        <time>2018-09-06T12:15:55Z</time>
      </trkpt>
      <trkpt lat="49.24208" lon="-0.32196">
        <ele>21.77</ele>
        <time>2018-09-06T12:16:12Z</time>
      </trkpt>
      <trkpt lat="49.24202" lon="-0.3216">
        <ele>22.25</ele>
        <time>2018-09-06T12:16:17Z</time>
      </trkpt>
      <trkpt lat="49.24133" lon="-0.32042">
        <ele>22.25</ele>
        <time>2018-09-06T12:16:39Z</time>
      </trkpt>
      <trkpt lat="49.24076" lon="-0.31955">
        <ele>22.25</ele>
        <time>2018-09-06T12:16:58Z</time>
      </trkpt>
      <trkpt lat="49.24051" lon="-0.31923">
        <ele>23.21</ele>
        <time>2018-09-06T12:17:12Z</time>
      </trkpt>
      <trkpt lat="49.23985" lon="-0.31828">
        <ele>22.25</ele>
        <time>2018-09-06T12:17:30Z</time>
      </trkpt>
      <trkpt lat="49.23899" lon="-0.31698">
        <ele>22.73</ele>
        <time>2018-09-06T12:17:51Z</time>
      </trkpt>
      <trkpt lat="49.23816" lon="-0.31567">
        <ele>21.77</ele>
        <time>2018-09-06T12:18:13Z</time>
      </trkpt>
      <trkpt lat="49.23792" lon="-0.31521">
        <ele>21.77</ele>
        <time>2018-09-06T12:18:25Z</time>
      </trkpt>
      <trkpt lat="49.2369" lon="-0.31308">
        <ele>22.73</ele>
        <time>2018-09-06T12:18:52Z</time>
      </trkpt>
      <trkpt lat="49.23635" lon="-0.31204">
        <ele>26.09</ele>
        <time>2018-09-06T12:19:06Z</time>
      </trkpt>
      <trkpt lat="49.23566" lon="-0.31079">
        <ele>27.53</ele>
        <time>2018-09-06T12:19:25Z</time>
      </trkpt>
      <trkpt lat="49.23491" lon="-0.30947">
        <ele>28.02</ele>
        <time>2018-09-06T12:19:46Z</time>
      </trkpt>
      <trkpt lat="49.23413" lon="-0.30914">
        <ele>28.02</ele>
        <time>2018-09-06T12:20:02Z</time>
      </trkpt>
      <trkpt lat="49.23329" lon="-0.30971">
        <ele>28.98</ele>
        <time>2018-09-06T12:20:18Z</time>
      </trkpt>
      <trkpt lat="49.23315" lon="-0.30989">
        <ele>28.98</ele>
        <time>2018-09-06T12:20:21Z</time>
      </trkpt>
      <trkpt lat="49.233" lon="-0.30997">
        <ele>28.98</ele>
        <time>2018-09-06T12:20:24Z</time>
      </trkpt>
      <trkpt lat="49.23287" lon="-0.30999">
        <ele>28.5</ele>
        <time>2018-09-06T12:20:28Z</time>
      </trkpt>
      <trkpt lat="49.23277" lon="-0.30987">
        <ele>27.53</ele>
        <time>2018-09-06T12:20:35Z</time>
      </trkpt>
      <trkpt lat="49.23221" lon="-0.30833">
        <ele>26.09</ele>
        <time>2018-09-06T12:20:56Z</time>
      </trkpt>
      <trkpt lat="49.23163" lon="-0.30731">
        <ele>25.13</ele>
        <time>2018-09-06T12:21:13Z</time>
      </trkpt>
      <trkpt lat="49.23123" lon="-0.30683">
        <ele>24.65</ele>
        <time>2018-09-06T12:21:23Z</time>
      </trkpt>
      <trkpt lat="49.23097" lon="-0.30671">
        <ele>25.13</ele>
        <time>2018-09-06T12:21:38Z</time>
      </trkpt>
      <trkpt lat="49.23098" lon="-0.30625">
        <ele>24.65</ele>
        <time>2018-09-06T12:21:52Z</time>
      </trkpt>
      <trkpt lat="49.23095" lon="-0.30551">
        <ele>24.65</ele>
        <time>2018-09-06T12:22:04Z</time>
      </trkpt>
      <trkpt lat="49.23097" lon="-0.30531">
        <ele>24.65</ele>
        <time>2018-09-06T12:22:07Z</time>
      </trkpt>
      <trkpt lat="49.23072" lon="-0.30411">
        <ele>24.17</ele>
        <time>2018-09-06T12:22:24Z</time>
      </trkpt>
      <trkpt lat="49.2306" lon="-0.30375">
        <ele>23.69</ele>
        <time>2018-09-06T12:22:29Z</time>
      </trkpt>
      <trkpt lat="49.23027" lon="-0.30296">
        <ele>22.73</ele>
        <time>2018-09-06T12:22:41Z</time>
      </trkpt>
      <trkpt lat="49.23019" lon="-0.30276">
        <ele>20.81</ele>
        <time>2018-09-06T12:22:51Z</time>
      </trkpt>
      <trkpt lat="49.22989" lon="-0.30234">
        <ele>22.25</ele>
        <time>2018-09-06T12:23:07Z</time>
      </trkpt>
      <trkpt lat="49.22987" lon="-0.30216">
        <ele>20.81</ele>
        <time>2018-09-06T12:23:50Z</time>
      </trkpt>
      <trkpt lat="49.22983" lon="-0.30182">
        <ele>19.84</ele>
        <time>2018-09-06T12:24:04Z</time>
      </trkpt>
      <trkpt lat="49.22912" lon="-0.30036">
        <ele>16.96</ele>
        <time>2018-09-06T12:24:27Z</time>
      </trkpt>
      <trkpt lat="49.22882" lon="-0.29931">
        <ele>15.52</ele>
        <time>2018-09-06T12:24:41Z</time>
      </trkpt>
      <trkpt lat="49.2288" lon="-0.29901">
        <ele>15.04</ele>
        <time>2018-09-06T12:24:45Z</time>
      </trkpt>
      <trkpt lat="49.22885" lon="-0.29875">
        <ele>15.52</ele>
        <time>2018-09-06T12:24:49Z</time>
      </trkpt>
      <trkpt lat="49.22907" lon="-0.29792">
        <ele>15.04</ele>
        <time>2018-09-06T12:25:00Z</time>
      </trkpt>
      <trkpt lat="49.22913" lon="-0.29778">
        <ele>14.56</ele>
        <time>2018-09-06T12:25:02Z</time>
      </trkpt>
      <trkpt lat="49.22986" lon="-0.29686">
        <ele>13.6</ele>
        <time>2018-09-06T12:25:20Z</time>
      </trkpt>
      <trkpt lat="49.23008" lon="-0.2964">
        <ele>12.15</ele>
        <time>2018-09-06T12:25:31Z</time>
      </trkpt>
      <trkpt lat="49.23008" lon="-0.29638">
        <ele>12.15</ele>
        <time>2018-09-06T12:25:38Z</time>
      </trkpt>
      <trkpt lat="49.23002" lon="-0.29618">
        <ele>12.63</ele>
        <time>2018-09-06T12:25:45Z</time>
      </trkpt>
      <trkpt lat="49.23016" lon="-0.29597">
        <ele>12.63</ele>
        <time>2018-09-06T12:25:52Z</time>
      </trkpt>
      <trkpt lat="49.23028" lon="-0.29594">
        <ele>12.63</ele>
        <time>2018-09-06T12:25:55Z</time>
      </trkpt>
      <trkpt lat="49.23109" lon="-0.29522">
        <ele>12.63</ele>
        <time>2018-09-06T12:26:14Z</time>
      </trkpt>
      <trkpt lat="49.23149" lon="-0.29421">
        <ele>12.15</ele>
        <time>2018-09-06T12:26:33Z</time>
      </trkpt>
      <trkpt lat="49.2314" lon="-0.29377">
        <ele>11.19</ele>
        <time>2018-09-06T12:26:41Z</time>
      </trkpt>
      <trkpt lat="49.23125" lon="-0.29357">
        <ele>10.71</ele>
        <time>2018-09-06T12:26:45Z</time>
      </trkpt>
      <trkpt lat="49.23045" lon="-0.29252">
        <ele>9.75</ele>
        <time>2018-09-06T12:27:05Z</time>
      </trkpt>
      <trkpt lat="49.23009" lon="-0.292">
        <ele>7.83</ele>
        <time>2018-09-06T12:27:14Z</time>
      </trkpt>
      <trkpt lat="49.23005" lon="-0.29195">
        <ele>6.87</ele>
        <time>2018-09-06T12:27:15Z</time>
      </trkpt>
      <trkpt lat="49.22994" lon="-0.29183">
        <ele>6.39</ele>
        <time>2018-09-06T12:27:18Z</time>
      </trkpt>
      <trkpt lat="49.22979" lon="-0.29174">
        <ele>5.91</ele>
        <time>2018-09-06T12:27:22Z</time>
      </trkpt>
      <trkpt lat="49.2297" lon="-0.29136">
        <ele>4.94</ele>
        <time>2018-09-06T12:27:30Z</time>
      </trkpt>
      <trkpt lat="49.22992" lon="-0.29132">
        <ele>5.42</ele>
        <time>2018-09-06T12:27:36Z</time>
      </trkpt>
      <trkpt lat="49.23012" lon="-0.29124">
        <ele>5.42</ele>
        <time>2018-09-06T12:27:41Z</time>
      </trkpt>
      <trkpt lat="49.23096" lon="-0.29133">
        <ele>4.46</ele>
        <time>2018-09-06T12:27:59Z</time>
      </trkpt>
      <trkpt lat="49.23189" lon="-0.29089">
        <ele>6.87</ele>
        <time>2018-09-06T12:28:18Z</time>
      </trkpt>
      <trkpt lat="49.23294" lon="-0.29032">
        <ele>8.79</ele>
        <time>2018-09-06T12:28:39Z</time>
      </trkpt>
      <trkpt lat="49.23329" lon="-0.28981">
        <ele>9.75</ele>
        <time>2018-09-06T12:28:52Z</time>
      </trkpt>
      <trkpt lat="49.23345" lon="-0.28944">
        <ele>11.67</ele>
        <time>2018-09-06T12:28:58Z</time>
      </trkpt>
      <trkpt lat="49.23396" lon="-0.28821">
        <ele>12.15</ele>
        <time>2018-09-06T12:29:16Z</time>
      </trkpt>
      <trkpt lat="49.23454" lon="-0.28688">
        <ele>11.19</ele>
        <time>2018-09-06T12:29:38Z</time>
      </trkpt>
      <trkpt lat="49.23531" lon="-0.28564">
        <ele>10.23</ele>
        <time>2018-09-06T12:30:04Z</time>
      </trkpt>
      <trkpt lat="49.2355" lon="-0.28538">
        <ele>9.27</ele>
        <time>2018-09-06T12:30:18Z</time>
      </trkpt>
      <trkpt lat="49.23559" lon="-0.28527">
        <ele>9.27</ele>
        <time>2018-09-06T12:30:34Z</time>
      </trkpt>
      <trkpt lat="49.23563" lon="-0.28527">
        <ele>10.23</ele>
        <time>2018-09-06T12:30:49Z</time>
      </trkpt>
      <trkpt lat="49.23601" lon="-0.28564">
        <ele>11.19</ele>
        <time>2018-09-06T12:31:05Z</time>
      </trkpt>
      <trkpt lat="49.23625" lon="-0.28608">
        <ele>10.23</ele>
        <time>2018-09-06T12:31:13Z</time>
      </trkpt>
      <trkpt lat="49.23639" lon="-0.28609">
        <ele>10.23</ele>
        <time>2018-09-06T12:31:17Z</time>
      </trkpt>
      <trkpt lat="49.23659" lon="-0.28585">
        <ele>10.23</ele>
        <time>2018-09-06T12:31:23Z</time>
      </trkpt>
      <trkpt lat="49.23787" lon="-0.28456">
        <ele>8.31</ele>
        <time>2018-09-06T12:31:48Z</time>
      </trkpt>
      <trkpt lat="49.23904" lon="-0.28346">
        <ele>9.27</ele>
        <time>2018-09-06T12:32:12Z</time>
      </trkpt>
      <trkpt lat="49.23987" lon="-0.28273">
        <ele>10.71</ele>
        <time>2018-09-06T12:32:32Z</time>
      </trkpt>
      <trkpt lat="49.24008" lon="-0.28256">
        <ele>11.19</ele>
        <time>2018-09-06T12:32:37Z</time>
      </trkpt>
      <trkpt lat="49.24026" lon="-0.28246">
        <ele>10.23</ele>
        <time>2018-09-06T12:32:41Z</time>
      </trkpt>
      <trkpt lat="49.24039" lon="-0.2823">
        <ele>10.23</ele>
        <time>2018-09-06T12:32:45Z</time>
      </trkpt>
      <trkpt lat="49.24046" lon="-0.28208">
        <ele>10.23</ele>
        <time>2018-09-06T12:34:08Z</time>
      </trkpt>
      <trkpt lat="49.24077" lon="-0.28171">
        <ele>9.75</ele>
        <time>2018-09-06T12:34:27Z</time>
      </trkpt>
      <trkpt lat="49.24102" lon="-0.28142">
        <ele>11.19</ele>
        <time>2018-09-06T12:34:41Z</time>
      </trkpt>
      <trkpt lat="49.24138" lon="-0.28097">
        <ele>11.19</ele>
        <time>2018-09-06T12:34:55Z</time>
      </trkpt>
      <trkpt lat="49.24256" lon="-0.27923">
        <ele>11.67</ele>
        <time>2018-09-06T12:35:38Z</time>
      </trkpt>
      <trkpt lat="49.24328" lon="-0.27843">
        <ele>10.23</ele>
        <time>2018-09-06T12:36:00Z</time>
      </trkpt>
      <trkpt lat="49.24349" lon="-0.27771">
        <ele>7.83</ele>
        <time>2018-09-06T12:36:10Z</time>
      </trkpt>
      <trkpt lat="49.24286" lon="-0.27586">
        <ele>4.46</ele>
        <time>2018-09-06T12:36:32Z</time>
      </trkpt>
      <trkpt lat="49.24258" lon="-0.27506">
        <ele>2.54</ele>
        <time>2018-09-06T12:36:49Z</time>
      </trkpt>
      <trkpt lat="49.24251" lon="-0.27489">
        <ele>3.98</ele>
        <time>2018-09-06T12:38:37Z</time>
      </trkpt>
      <trkpt lat="49.24222" lon="-0.2738">
        <ele>3.98</ele>
        <time>2018-09-06T12:38:54Z</time>
      </trkpt>
      <trkpt lat="49.24214" lon="-0.27352">
        <ele>3.98</ele>
        <time>2018-09-06T12:38:58Z</time>
      </trkpt>
      <trkpt lat="49.24186" lon="-0.27307">
        <ele>3.5</ele>
        <time>2018-09-06T12:39:06Z</time>
      </trkpt>
      <trkpt lat="49.24137" lon="-0.27146">
        <ele>3.98</ele>
        <time>2018-09-06T12:39:26Z</time>
      </trkpt>
      <trkpt lat="49.24091" lon="-0.26966">
        <ele>3.5</ele>
        <time>2018-09-06T12:39:48Z</time>
      </trkpt>
      <trkpt lat="49.24078" lon="-0.26948">
        <ele>3.98</ele>
        <time>2018-09-06T12:39:58Z</time>
      </trkpt>
      <trkpt lat="49.24033" lon="-0.26964">
        <ele>3.5</ele>
        <time>2018-09-06T12:40:12Z</time>
      </trkpt>
      <trkpt lat="49.24039" lon="-0.26993">
        <ele>2.06</ele>
        <time>2018-09-06T12:40:24Z</time>
      </trkpt>
      <trkpt lat="49.24065" lon="-0.26995">
        <ele>2.06</ele>
        <time>2018-09-06T12:40:43Z</time>
      </trkpt>
      <trkpt lat="49.24063" lon="-0.26988">
        <ele>2.06</ele>
        <time>2018-09-06T12:41:05Z</time>
      </trkpt>
      <trkpt lat="49.24061" lon="-0.26984">
        <ele>2.54</ele>
        <time>2018-09-06T12:42:22Z</time>
      </trkpt>
      <trkpt lat="49.24065" lon="-0.26981">
        <ele>3.02</ele>
        <time>2018-09-06T12:43:36Z</time>
      </trkpt>
      <trkpt lat="49.24068" lon="-0.26974">
        <ele>2.54</ele>
        <time>2018-09-06T12:43:42Z</time>
      </trkpt>
      <trkpt lat="49.24071" lon="-0.26975">
        <ele>3.02</ele>
        <time>2018-09-06T12:43:45Z</time>
      </trkpt>
      <trkpt lat="49.24068" lon="-0.26994">
        <ele>3.02</ele>
        <time>2018-09-06T12:43:54Z</time>
      </trkpt>
      <trkpt lat="49.2405" lon="-0.26994">
        <ele>3.5</ele>
        <time>2018-09-06T12:44:11Z</time>
      </trkpt>
      <trkpt lat="49.24026" lon="-0.26973">
        <ele>2.54</ele>
        <time>2018-09-06T12:51:29Z</time>
      </trkpt>
      <trkpt lat="49.24027" lon="-0.26966">
        <ele>2.54</ele>
        <time>2018-09-06T12:51:32Z</time>
      </trkpt>
      <trkpt lat="49.24038" lon="-0.26956">
        <ele>3.02</ele>
        <time>2018-09-06T12:51:36Z</time>
      </trkpt>
      <trkpt lat="49.24064" lon="-0.26938">
        <ele>3.02</ele>
        <time>2018-09-06T12:51:42Z</time>
      </trkpt>
      <trkpt lat="49.24096" lon="-0.26915">
        <ele>3.5</ele>
        <time>2018-09-06T12:51:51Z</time>
      </trkpt>
      <trkpt lat="49.24105" lon="-0.26935">
        <ele>3.02</ele>
        <time>2018-09-06T12:51:57Z</time>
      </trkpt>
      <trkpt lat="49.24114" lon="-0.27011">
        <ele>3.5</ele>
        <time>2018-09-06T12:52:13Z</time>
      </trkpt>
      <trkpt lat="49.24144" lon="-0.27135">
        <ele>3.02</ele>
        <time>2018-09-06T12:52:33Z</time>
      </trkpt>
      <trkpt lat="49.24176" lon="-0.27241">
        <ele>2.54</ele>
        <time>2018-09-06T12:52:53Z</time>
      </trkpt>
      <trkpt lat="49.24197" lon="-0.27279">
        <ele>2.54</ele>
        <time>2018-09-06T12:53:09Z</time>
      </trkpt>
      <trkpt lat="49.24219" lon="-0.2734">
        <ele>3.02</ele>
        <time>2018-09-06T12:53:24Z</time>
      </trkpt>
      <trkpt lat="49.24228" lon="-0.27362">
        <ele>3.5</ele>
        <time>2018-09-06T12:53:36Z</time>
      </trkpt>
      <trkpt lat="49.24245" lon="-0.2743">
        <ele>3.5</ele>
        <time>2018-09-06T12:53:54Z</time>
      </trkpt>
      <trkpt lat="49.24259" lon="-0.27479">
        <ele>4.46</ele>
        <time>2018-09-06T12:54:11Z</time>
      </trkpt>
      <trkpt lat="49.2427" lon="-0.27501">
        <ele>3.98</ele>
        <time>2018-09-06T12:54:24Z</time>
      </trkpt>
      <trkpt lat="49.24269" lon="-0.27506">
        <ele>4.46</ele>
        <time>2018-09-06T12:54:30Z</time>
      </trkpt>
      <trkpt lat="49.24263" lon="-0.27493">
        <ele>3.98</ele>
        <time>2018-09-06T12:54:41Z</time>
      </trkpt>
      <trkpt lat="49.24264" lon="-0.27491">
        <ele>4.46</ele>
        <time>2018-09-06T12:54:58Z</time>
      </trkpt>
      <trkpt lat="49.2429" lon="-0.27464">
        <ele>4.46</ele>
        <time>2018-09-06T12:55:18Z</time>
      </trkpt>
      <trkpt lat="49.24348" lon="-0.27448">
        <ele>4.46</ele>
        <time>2018-09-06T12:55:28Z</time>
      </trkpt>
      <trkpt lat="49.24433" lon="-0.27389">
        <ele>4.46</ele>
        <time>2018-09-06T12:55:48Z</time>
      </trkpt>
      <trkpt lat="49.24533" lon="-0.27316">
        <ele>3.5</ele>
        <time>2018-09-06T12:56:09Z</time>
      </trkpt>
      <trkpt lat="49.24637" lon="-0.27235">
        <ele>3.02</ele>
        <time>2018-09-06T12:56:29Z</time>
      </trkpt>
      <trkpt lat="49.24747" lon="-0.27164">
        <ele>2.54</ele>
        <time>2018-09-06T12:56:50Z</time>
      </trkpt>
      <trkpt lat="49.24855" lon="-0.27081">
        <ele>3.02</ele>
        <time>2018-09-06T12:57:10Z</time>
      </trkpt>
      <trkpt lat="49.24991" lon="-0.26979">
        <ele>3.02</ele>
        <time>2018-09-06T12:57:34Z</time>
      </trkpt>
      <trkpt lat="49.25189" lon="-0.26828">
        <ele>3.02</ele>
        <time>2018-09-06T12:58:08Z</time>
      </trkpt>
      <trkpt lat="49.25353" lon="-0.26705">
        <ele>3.5</ele>
        <time>2018-09-06T12:58:36Z</time>
      </trkpt>
      <trkpt lat="49.2549" lon="-0.26574">
        <ele>3.5</ele>
        <time>2018-09-06T12:59:01Z</time>
      </trkpt>
      <trkpt lat="49.25573" lon="-0.26465">
        <ele>3.5</ele>
        <time>2018-09-06T12:59:18Z</time>
      </trkpt>
      <trkpt lat="49.25677" lon="-0.26251">
        <ele>3.02</ele>
        <time>2018-09-06T12:59:45Z</time>
      </trkpt>
      <trkpt lat="49.25743" lon="-0.26058">
        <ele>3.02</ele>
        <time>2018-09-06T13:00:07Z</time>
      </trkpt>
      <trkpt lat="49.25822" lon="-0.25877">
        <ele>3.02</ele>
        <time>2018-09-06T13:00:29Z</time>
      </trkpt>
      <trkpt lat="49.25937" lon="-0.25745">
        <ele>2.54</ele>
        <time>2018-09-06T13:00:51Z</time>
      </trkpt>
      <trkpt lat="49.26099" lon="-0.256">
        <ele>3.98</ele>
        <time>2018-09-06T13:01:20Z</time>
      </trkpt>
      <trkpt lat="49.26239" lon="-0.255">
        <ele>3.5</ele>
        <time>2018-09-06T13:01:44Z</time>
      </trkpt>
      <trkpt lat="49.2641" lon="-0.2541">
        <ele>4.46</ele>
        <time>2018-09-06T13:02:12Z</time>
      </trkpt>
      <trkpt lat="49.26577" lon="-0.25361">
        <ele>3.98</ele>
        <time>2018-09-06T13:02:38Z</time>
      </trkpt>
      <trkpt lat="49.26755" lon="-0.25311">
        <ele>3.98</ele>
        <time>2018-09-06T13:03:06Z</time>
      </trkpt>
      <trkpt lat="49.26936" lon="-0.2526">
        <ele>3.5</ele>
        <time>2018-09-06T13:03:35Z</time>
      </trkpt>
      <trkpt lat="49.27025" lon="-0.25235">
        <ele>3.02</ele>
        <time>2018-09-06T13:03:52Z</time>
      </trkpt>
      <trkpt lat="49.27064" lon="-0.25226">
        <ele>3.5</ele>
        <time>2018-09-06T13:04:09Z</time>
      </trkpt>
      <trkpt lat="49.27083" lon="-0.25226">
        <ele>3.02</ele>
        <time>2018-09-06T13:04:25Z</time>
      </trkpt>
      <trkpt lat="49.27093" lon="-0.25231">
        <ele>3.5</ele>
        <time>2018-09-06T13:04:46Z</time>
      </trkpt>
      <trkpt lat="49.27129" lon="-0.25231">
        <ele>3.5</ele>
        <time>2018-09-06T13:04:59Z</time>
      </trkpt>
      <trkpt lat="49.27164" lon="-0.25224">
        <ele>3.5</ele>
        <time>2018-09-06T13:05:07Z</time>
      </trkpt>
      <trkpt lat="49.27187" lon="-0.25225">
        <ele>3.5</ele>
        <time>2018-09-06T13:05:12Z</time>
      </trkpt>
      <trkpt lat="49.27268" lon="-0.25193">
        <ele>3.5</ele>
        <time>2018-09-06T13:05:33Z</time>
      </trkpt>
      <trkpt lat="49.27339" lon="-0.25169">
        <ele>3.5</ele>
        <time>2018-09-06T13:05:51Z</time>
      </trkpt>
      <trkpt lat="49.27402" lon="-0.25152">
        <ele>3.5</ele>
        <time>2018-09-06T13:06:08Z</time>
      </trkpt>
      <trkpt lat="49.27421" lon="-0.25153">
        <ele>3.02</ele>
        <time>2018-09-06T13:06:35Z</time>
      </trkpt>
      <trkpt lat="49.27467" lon="-0.25144">
        <ele>3.02</ele>
        <time>2018-09-06T13:06:49Z</time>
      </trkpt>
      <trkpt lat="49.27526" lon="-0.25124">
        <ele>3.02</ele>
        <time>2018-09-06T13:07:04Z</time>
      </trkpt>
      <trkpt lat="49.27616" lon="-0.25095">
        <ele>3.02</ele>
        <time>2018-09-06T13:07:23Z</time>
      </trkpt>
      <trkpt lat="49.27713" lon="-0.25067">
        <ele>3.98</ele>
        <time>2018-09-06T13:07:43Z</time>
      </trkpt>
      <trkpt lat="49.27785" lon="-0.25045">
        <ele>2.54</ele>
        <time>2018-09-06T13:08:02Z</time>
      </trkpt>
      <trkpt lat="49.27829" lon="-0.25032">
        <ele>2.06</ele>
        <time>2018-09-06T13:08:18Z</time>
      </trkpt>
      <trkpt lat="49.27831" lon="-0.25018">
        <ele>2.06</ele>
        <time>2018-09-06T13:08:26Z</time>
      </trkpt>
      <trkpt lat="49.27837" lon="-0.25013">
        <ele>2.06</ele>
        <time>2018-09-06T13:08:31Z</time>
      </trkpt>
      <trkpt lat="49.27878" lon="-0.25009">
        <ele>3.02</ele>
        <time>2018-09-06T13:08:45Z</time>
      </trkpt>
      <trkpt lat="49.2796" lon="-0.24987">
        <ele>3.02</ele>
        <time>2018-09-06T13:09:06Z</time>
      </trkpt>
      <trkpt lat="49.28033" lon="-0.24971">
        <ele>2.54</ele>
        <time>2018-09-06T13:09:25Z</time>
      </trkpt>
      <trkpt lat="49.28105" lon="-0.24978">
        <ele>2.54</ele>
        <time>2018-09-06T13:09:44Z</time>
      </trkpt>
      <trkpt lat="49.28152" lon="-0.24971">
        <ele>2.54</ele>
        <time>2018-09-06T13:10:01Z</time>
      </trkpt>
      <trkpt lat="49.28201" lon="-0.24948">
        <ele>2.54</ele>
        <time>2018-09-06T13:10:22Z</time>
      </trkpt>
      <trkpt lat="49.28227" lon="-0.24936">
        <ele>2.06</ele>
        <time>2018-09-06T13:10:40Z</time>
      </trkpt>
      <trkpt lat="49.28229" lon="-0.24936">
        <ele>2.54</ele>
        <time>2018-09-06T13:10:41Z</time>
      </trkpt>
      <trkpt lat="49.28232" lon="-0.24941">
        <ele>2.06</ele>
        <time>2018-09-06T13:10:45Z</time>
      </trkpt>
      <trkpt lat="49.28245" lon="-0.24959">
        <ele>3.02</ele>
        <time>2018-09-06T13:10:57Z</time>
      </trkpt>
      <trkpt lat="49.28268" lon="-0.25011">
        <ele>3.98</ele>
        <time>2018-09-06T13:11:17Z</time>
      </trkpt>
      <trkpt lat="49.28275" lon="-0.25038">
        <ele>3.02</ele>
        <time>2018-09-06T13:11:24Z</time>
      </trkpt>
      <trkpt lat="49.28282" lon="-0.25063">
        <ele>3.02</ele>
        <time>2018-09-06T13:11:39Z</time>
      </trkpt>
      <trkpt lat="49.28285" lon="-0.25065">
        <ele>3.5</ele>
        <time>2018-09-06T13:11:56Z</time>
      </trkpt>
      <trkpt lat="49.28307" lon="-0.25065">
        <ele>3.5</ele>
        <time>2018-09-06T13:12:52Z</time>
      </trkpt>
      <trkpt lat="49.28366" lon="-0.25051">
        <ele>3.5</ele>
        <time>2018-09-06T13:13:13Z</time>
      </trkpt>
      <trkpt lat="49.28436" lon="-0.25033">
        <ele>3.5</ele>
        <time>2018-09-06T13:13:35Z</time>
      </trkpt>
      <trkpt lat="49.28538" lon="-0.25002">
        <ele>0.62</ele>
        <time>2018-09-06T13:13:57Z</time>
      </trkpt>
      <trkpt lat="49.28575" lon="-0.24989">
        <ele>0.62</ele>
        <time>2018-09-06T13:14:12Z</time>
      </trkpt>
      <trkpt lat="49.28647" lon="-0.24958">
        <ele>2.06</ele>
        <time>2018-09-06T13:14:47Z</time>
      </trkpt>
      <trkpt lat="49.28696" lon="-0.24939">
        <ele>2.54</ele>
        <time>2018-09-06T13:15:02Z</time>
      </trkpt>
      <trkpt lat="49.28729" lon="-0.24967">
        <ele>1.58</ele>
        <time>2018-09-06T13:15:19Z</time>
      </trkpt>
      <trkpt lat="49.28765" lon="-0.25045">
        <ele>0.62</ele>
        <time>2018-09-06T13:15:41Z</time>
      </trkpt>
      <trkpt lat="49.28766" lon="-0.25047">
        <ele>0.62</ele>
        <time>2018-09-06T13:15:42Z</time>
      </trkpt>
      <trkpt lat="49.28785" lon="-0.25038">
        <ele>2.06</ele>
        <time>2018-09-06T13:16:00Z</time>
      </trkpt>
      <trkpt lat="49.2879" lon="-0.25034">
        <ele>2.54</ele>
        <time>2018-09-06T13:16:06Z</time>
      </trkpt>
      <trkpt lat="49.28817" lon="-0.25091">
        <ele>3.02</ele>
        <time>2018-09-06T13:16:24Z</time>
      </trkpt>
      <trkpt lat="49.2884" lon="-0.25157">
        <ele>1.1</ele>
        <time>2018-09-06T13:16:38Z</time>
      </trkpt>
      <trkpt lat="49.28857" lon="-0.25184">
        <ele>1.1</ele>
        <time>2018-09-06T13:16:57Z</time>
      </trkpt>
      <trkpt lat="49.28861" lon="-0.25194">
        <ele>2.06</ele>
        <time>2018-09-06T13:17:55Z</time>
      </trkpt>
      <trkpt lat="49.28902" lon="-0.25232">
        <ele>1.1</ele>
        <time>2018-09-06T13:18:14Z</time>
      </trkpt>
      <trkpt lat="49.28923" lon="-0.25277">
        <ele>0.62</ele>
        <time>2018-09-06T13:18:31Z</time>
      </trkpt>
      <trkpt lat="49.28952" lon="-0.25297">
        <ele>0.14</ele>
        <time>2018-09-06T13:18:49Z</time>
      </trkpt>
      <trkpt lat="49.28972" lon="-0.25328">
        <ele>0.62</ele>
        <time>2018-09-06T13:19:03Z</time>
      </trkpt>
      <trkpt lat="49.28982" lon="-0.25399">
        <ele>0.62</ele>
        <time>2018-09-06T13:19:20Z</time>
      </trkpt>
      <trkpt lat="49.28991" lon="-0.25466">
        <ele>1.1</ele>
        <time>2018-09-06T13:19:38Z</time>
      </trkpt>
      <trkpt lat="49.28993" lon="-0.25492">
        <ele>1.1</ele>
        <time>2018-09-06T13:20:01Z</time>
      </trkpt>
      <trkpt lat="49.28998" lon="-0.25527">
        <ele>1.1</ele>
        <time>2018-09-06T13:20:21Z</time>
      </trkpt>
      <trkpt lat="49.29006" lon="-0.25589">
        <ele>1.1</ele>
        <time>2018-09-06T13:20:37Z</time>
      </trkpt>
      <trkpt lat="49.29016" lon="-0.25654">
        <ele>0.62</ele>
        <time>2018-09-06T13:20:56Z</time>
      </trkpt>
      <trkpt lat="49.29013" lon="-0.25713">
        <ele>1.1</ele>
        <time>2018-09-06T13:21:18Z</time>
      </trkpt>
      <trkpt lat="49.28972" lon="-0.25735">
        <ele>1.1</ele>
        <time>2018-09-06T13:21:37Z</time>
      </trkpt>
      <trkpt lat="49.28946" lon="-0.25757">
        <ele>-0.34</ele>
        <time>2018-09-06T13:22:02Z</time>
      </trkpt>
      <trkpt lat="49.2894" lon="-0.25762">
        <ele>0.14</ele>
        <time>2018-09-06T13:22:09Z</time>
      </trkpt>
      <trkpt lat="49.28934" lon="-0.25772">
        <ele>-0.34</ele>
        <time>2018-09-06T13:22:30Z</time>
      </trkpt>
      <trkpt lat="49.28934" lon="-0.25814">
        <ele>0.62</ele>
        <time>2018-09-06T13:22:50Z</time>
      </trkpt>
      <trkpt lat="49.28961" lon="-0.2588">
        <ele>0.62</ele>
        <time>2018-09-06T13:23:06Z</time>
      </trkpt>
      <trkpt lat="49.28981" lon="-0.2594">
        <ele>0.62</ele>
        <time>2018-09-06T13:23:23Z</time>
      </trkpt>
      <trkpt lat="49.28993" lon="-0.26014">
        <ele>1.1</ele>
        <time>2018-09-06T13:23:40Z</time>
      </trkpt>
      <trkpt lat="49.29015" lon="-0.26078">
        <ele>0.62</ele>
        <time>2018-09-06T13:23:56Z</time>
      </trkpt>
      <trkpt lat="49.29011" lon="-0.26125">
        <ele>0.62</ele>
        <time>2018-09-06T13:24:05Z</time>
      </trkpt>
      <trkpt lat="49.29023" lon="-0.26183">
        <ele>1.1</ele>
        <time>2018-09-06T13:24:14Z</time>
      </trkpt>
      <trkpt lat="49.2902" lon="-0.26222">
        <ele>0.14</ele>
        <time>2018-09-06T13:24:27Z</time>
      </trkpt>
      <trkpt lat="49.29021" lon="-0.26264">
        <ele>1.1</ele>
        <time>2018-09-06T13:25:52Z</time>
      </trkpt>
      <trkpt lat="49.29039" lon="-0.26356">
        <ele>1.58</ele>
        <time>2018-09-06T13:26:07Z</time>
      </trkpt>
      <trkpt lat="49.29063" lon="-0.26462">
        <ele>1.1</ele>
        <time>2018-09-06T13:26:24Z</time>
      </trkpt>
      <trkpt lat="49.29085" lon="-0.26574">
        <ele>1.58</ele>
        <time>2018-09-06T13:26:41Z</time>
      </trkpt>
      <trkpt lat="49.29094" lon="-0.26616">
        <ele>1.1</ele>
        <time>2018-09-06T13:26:48Z</time>
      </trkpt>
      <trkpt lat="49.29132" lon="-0.26671">
        <ele>2.54</ele>
        <time>2018-09-06T13:27:02Z</time>
      </trkpt>
      <trkpt lat="49.29141" lon="-0.26764">
        <ele>2.06</ele>
        <time>2018-09-06T13:27:18Z</time>
      </trkpt>
      <trkpt lat="49.29151" lon="-0.26867">
        <ele>2.54</ele>
        <time>2018-09-06T13:27:39Z</time>
      </trkpt>
      <trkpt lat="49.29163" lon="-0.26985">
        <ele>3.02</ele>
        <time>2018-09-06T13:27:57Z</time>
      </trkpt>
      <trkpt lat="49.2917" lon="-0.27102">
        <ele>3.02</ele>
        <time>2018-09-06T13:28:15Z</time>
      </trkpt>
      <trkpt lat="49.29179" lon="-0.27199">
        <ele>3.5</ele>
        <time>2018-09-06T13:28:31Z</time>
      </trkpt>
      <trkpt lat="49.29187" lon="-0.27281">
        <ele>2.54</ele>
        <time>2018-09-06T13:28:45Z</time>
      </trkpt>
      <trkpt lat="49.29195" lon="-0.27324">
        <ele>1.58</ele>
        <time>2018-09-06T13:28:53Z</time>
      </trkpt>
      <trkpt lat="49.29213" lon="-0.27356">
        <ele>2.54</ele>
        <time>2018-09-06T13:29:07Z</time>
      </trkpt>
      <trkpt lat="49.29222" lon="-0.27432">
        <ele>3.5</ele>
        <time>2018-09-06T13:29:18Z</time>
      </trkpt>
      <trkpt lat="49.29237" lon="-0.27542">
        <ele>3.98</ele>
        <time>2018-09-06T13:29:35Z</time>
      </trkpt>
      <trkpt lat="49.29254" lon="-0.27666">
        <ele>3.5</ele>
        <time>2018-09-06T13:29:54Z</time>
      </trkpt>
      <trkpt lat="49.29272" lon="-0.27794">
        <ele>3.98</ele>
        <time>2018-09-06T13:30:13Z</time>
      </trkpt>
      <trkpt lat="49.29275" lon="-0.27867">
        <ele>1.58</ele>
        <time>2018-09-06T13:30:27Z</time>
      </trkpt>
      <trkpt lat="49.29276" lon="-0.27929">
        <ele>1.58</ele>
        <time>2018-09-06T13:30:40Z</time>
      </trkpt>
      <trkpt lat="49.29278" lon="-0.27941">
        <ele>3.02</ele>
        <time>2018-09-06T13:30:42Z</time>
      </trkpt>
      <trkpt lat="49.29298" lon="-0.28058">
        <ele>3.02</ele>
        <time>2018-09-06T13:30:58Z</time>
      </trkpt>
      <trkpt lat="49.29318" lon="-0.28163">
        <ele>3.02</ele>
        <time>2018-09-06T13:31:13Z</time>
      </trkpt>
      <trkpt lat="49.29329" lon="-0.28242">
        <ele>2.06</ele>
        <time>2018-09-06T13:31:29Z</time>
      </trkpt>
      <trkpt lat="49.29333" lon="-0.28288">
        <ele>2.54</ele>
        <time>2018-09-06T13:31:40Z</time>
      </trkpt>
      <trkpt lat="49.29338" lon="-0.28309">
        <ele>3.5</ele>
        <time>2018-09-06T13:31:43Z</time>
      </trkpt>
      <trkpt lat="49.29371" lon="-0.2843">
        <ele>3.5</ele>
        <time>2018-09-06T13:31:58Z</time>
      </trkpt>
      <trkpt lat="49.29401" lon="-0.28557">
        <ele>2.54</ele>
        <time>2018-09-06T13:32:16Z</time>
      </trkpt>
      <trkpt lat="49.29438" lon="-0.28715">
        <ele>3.02</ele>
        <time>2018-09-06T13:32:38Z</time>
      </trkpt>
      <trkpt lat="49.2945" lon="-0.28786">
        <ele>2.06</ele>
        <time>2018-09-06T13:32:55Z</time>
      </trkpt>
      <trkpt lat="49.2946" lon="-0.28843">
        <ele>2.06</ele>
        <time>2018-09-06T13:33:10Z</time>
      </trkpt>
      <trkpt lat="49.29472" lon="-0.28888">
        <ele>2.06</ele>
        <time>2018-09-06T13:33:25Z</time>
      </trkpt>
      <trkpt lat="49.29471" lon="-0.289">
        <ele>1.58</ele>
        <time>2018-09-06T13:34:32Z</time>
      </trkpt>
      <trkpt lat="49.29472" lon="-0.28932">
        <ele>2.06</ele>
        <time>2018-09-06T13:36:22Z</time>
      </trkpt>
      <trkpt lat="49.29487" lon="-0.29012">
        <ele>3.02</ele>
        <time>2018-09-06T13:36:38Z</time>
      </trkpt>
      <trkpt lat="49.29505" lon="-0.29077">
        <ele>3.02</ele>
        <time>2018-09-06T13:36:56Z</time>
      </trkpt>
      <trkpt lat="49.29523" lon="-0.29146">
        <ele>3.02</ele>
        <time>2018-09-06T13:37:12Z</time>
      </trkpt>
      <trkpt lat="49.29549" lon="-0.29217">
        <ele>3.5</ele>
        <time>2018-09-06T13:37:30Z</time>
      </trkpt>
      <trkpt lat="49.29574" lon="-0.29302">
        <ele>3.5</ele>
        <time>2018-09-06T13:37:48Z</time>
      </trkpt>
      <trkpt lat="49.29589" lon="-0.29355">
        <ele>3.5</ele>
        <time>2018-09-06T13:38:05Z</time>
      </trkpt>
      <trkpt lat="49.2961" lon="-0.29431">
        <ele>3.98</ele>
        <time>2018-09-06T13:38:20Z</time>
      </trkpt>
      <trkpt lat="49.29631" lon="-0.29506">
        <ele>3.5</ele>
        <time>2018-09-06T13:38:36Z</time>
      </trkpt>
      <trkpt lat="49.29648" lon="-0.29575">
        <ele>3.02</ele>
        <time>2018-09-06T13:38:53Z</time>
      </trkpt>
      <trkpt lat="49.2967" lon="-0.29655">
        <ele>2.54</ele>
        <time>2018-09-06T13:39:11Z</time>
      </trkpt>
      <trkpt lat="49.29696" lon="-0.2975">
        <ele>2.06</ele>
        <time>2018-09-06T13:39:32Z</time>
      </trkpt>
      <trkpt lat="49.29723" lon="-0.29851">
        <ele>3.02</ele>
        <time>2018-09-06T13:39:54Z</time>
      </trkpt>
      <trkpt lat="49.29741" lon="-0.29919">
        <ele>2.54</ele>
        <time>2018-09-06T13:40:10Z</time>
      </trkpt>
      <trkpt lat="49.29755" lon="-0.2997">
        <ele>2.06</ele>
        <time>2018-09-06T13:40:28Z</time>
      </trkpt>
      <trkpt lat="49.29774" lon="-0.30043">
        <ele>3.02</ele>
        <time>2018-09-06T13:40:42Z</time>
      </trkpt>
      <trkpt lat="49.29802" lon="-0.30146">
        <ele>2.54</ele>
        <time>2018-09-06T13:41:02Z</time>
      </trkpt>
      <trkpt lat="49.29819" lon="-0.30212">
        <ele>1.1</ele>
        <time>2018-09-06T13:41:21Z</time>
      </trkpt>
      <trkpt lat="49.29834" lon="-0.30261">
        <ele>2.06</ele>
        <time>2018-09-06T13:41:37Z</time>
      </trkpt>
      <trkpt lat="49.29856" lon="-0.30339">
        <ele>2.06</ele>
        <time>2018-09-06T13:41:55Z</time>
      </trkpt>
      <trkpt lat="49.29887" lon="-0.30436">
        <ele>2.06</ele>
        <time>2018-09-06T13:42:13Z</time>
      </trkpt>
      <trkpt lat="49.29914" lon="-0.30516">
        <ele>2.06</ele>
        <time>2018-09-06T13:42:29Z</time>
      </trkpt>
      <trkpt lat="49.29946" lon="-0.30612">
        <ele>2.54</ele>
        <time>2018-09-06T13:42:48Z</time>
      </trkpt>
      <trkpt lat="49.29973" lon="-0.30694">
        <ele>2.54</ele>
        <time>2018-09-06T13:43:09Z</time>
      </trkpt>
      <trkpt lat="49.29999" lon="-0.30772">
        <ele>2.54</ele>
        <time>2018-09-06T13:43:23Z</time>
      </trkpt>
      <trkpt lat="49.30028" lon="-0.30849">
        <ele>2.54</ele>
        <time>2018-09-06T13:43:39Z</time>
      </trkpt>
      <trkpt lat="49.3006" lon="-0.30927">
        <ele>3.98</ele>
        <time>2018-09-06T13:43:59Z</time>
      </trkpt>
      <trkpt lat="49.30096" lon="-0.31012">
        <ele>3.02</ele>
        <time>2018-09-06T13:44:20Z</time>
      </trkpt>
      <trkpt lat="49.30129" lon="-0.31088">
        <ele>2.54</ele>
        <time>2018-09-06T13:44:40Z</time>
      </trkpt>
      <trkpt lat="49.30143" lon="-0.31128">
        <ele>2.54</ele>
        <time>2018-09-06T13:44:58Z</time>
      </trkpt>
      <trkpt lat="49.30157" lon="-0.31167">
        <ele>2.54</ele>
        <time>2018-09-06T13:45:21Z</time>
      </trkpt>
      <trkpt lat="49.30174" lon="-0.31223">
        <ele>2.06</ele>
        <time>2018-09-06T13:45:46Z</time>
      </trkpt>
      <trkpt lat="49.302" lon="-0.31291">
        <ele>2.06</ele>
        <time>2018-09-06T13:46:06Z</time>
      </trkpt>
      <trkpt lat="49.30225" lon="-0.31346">
        <ele>2.54</ele>
        <time>2018-09-06T13:46:24Z</time>
      </trkpt>
      <trkpt lat="49.30247" lon="-0.31407">
        <ele>2.54</ele>
        <time>2018-09-06T13:46:42Z</time>
      </trkpt>
      <trkpt lat="49.30269" lon="-0.31453">
        <ele>3.02</ele>
        <time>2018-09-06T13:47:02Z</time>
      </trkpt>
      <trkpt lat="49.30296" lon="-0.31517">
        <ele>3.5</ele>
        <time>2018-09-06T13:47:19Z</time>
      </trkpt>
      <trkpt lat="49.30323" lon="-0.31596">
        <ele>3.02</ele>
        <time>2018-09-06T13:47:40Z</time>
      </trkpt>
      <trkpt lat="49.30339" lon="-0.31648">
        <ele>4.46</ele>
        <time>2018-09-06T13:47:56Z</time>
      </trkpt>
      <trkpt lat="49.30376" lon="-0.31736">
        <ele>4.94</ele>
        <time>2018-09-06T13:48:16Z</time>
      </trkpt>
      <trkpt lat="49.30394" lon="-0.31776">
        <ele>5.42</ele>
        <time>2018-09-06T13:48:35Z</time>
      </trkpt>
      <trkpt lat="49.30419" lon="-0.31807">
        <ele>5.91</ele>
        <time>2018-09-06T13:48:44Z</time>
      </trkpt>
      <trkpt lat="49.30452" lon="-0.31856">
        <ele>8</ele>
      </trkpt>
      <trkpt lat="49.30495" lon="-0.31933">
        <ele>8.1</ele>
      </trkpt>
      <trkpt lat="49.30558" lon="-0.32088">
        <ele>7.6</ele>
      </trkpt>
      <trkpt lat="49.30606" lon="-0.32194">
        <ele>7.1</ele>
      </trkpt>
      <trkpt lat="49.30647" lon="-0.3231">
        <ele>6.3</ele>
      </trkpt>
      <trkpt lat="49.30634" lon="-0.32328">
        <ele>7.9</ele>
      </trkpt>
      <trkpt lat="49.30597" lon="-0.32354">
        <ele>8.6</ele>
      </trkpt>
      <trkpt lat="49.30585" lon="-0.32405">
        <ele>8.9</ele>
      </trkpt>
      <trkpt lat="49.30584" lon="-0.32435">
        <ele>8.3</ele>
      </trkpt>
      <trkpt lat="49.30625" lon="-0.32496">
        <ele>8.9</ele>
      </trkpt>
      <trkpt lat="49.30681" lon="-0.32595">
        <ele>10</ele>
      </trkpt>
      <trkpt lat="49.30946" lon="-0.33155">
        <ele>12</ele>
      </trkpt>
      <trkpt lat="49.31257" lon="-0.33912">
        <ele>11</ele>
      </trkpt>
      <trkpt lat="49.31415" lon="-0.34292">
        <ele>10</ele>
      </trkpt>
      <trkpt lat="49.31485" lon="-0.34221">
        <ele>8.2</ele>
      </trkpt>
      <trkpt lat="49.31498" lon="-0.34214">
        <ele>7.5</ele>
      </trkpt>
      <trkpt lat="49.31621" lon="-0.34377">
        <ele>5.6</ele>
      </trkpt>
      <trkpt lat="49.31761" lon="-0.34774">
        <ele>5.8</ele>
      </trkpt>
      <trkpt lat="49.31776" lon="-0.34818">
        <ele>5.4</ele>
      </trkpt>
      <trkpt lat="49.31771" lon="-0.34868">
        <ele>7.2</ele>
      </trkpt>
      <trkpt lat="49.31801" lon="-0.34868">
        <ele>4.6</ele>
      </trkpt>
      <trkpt lat="49.32191" lon="-0.35836">
        <ele>4.3</ele>
      </trkpt>
      <trkpt lat="49.32175" lon="-0.35891">
        <ele>5.4</ele>
      </trkpt>
      <trkpt lat="49.32251" lon="-0.36045">
        <ele>6.3</ele>
      </trkpt>
      <trkpt lat="49.32327" lon="-0.36208">
        <ele>6.1</ele>
      </trkpt>
      <trkpt lat="49.32368" lon="-0.36331">
        <ele>8.5</ele>
      </trkpt>
      <trkpt lat="49.32361" lon="-0.36348">
        <ele>11</ele>
      </trkpt>
      <trkpt lat="49.32388" lon="-0.36478">
        <ele>11</ele>
      </trkpt>
      <trkpt lat="49.32483" lon="-0.3682">
        <ele>9.8</ele>
      </trkpt>
      <trkpt lat="49.32523" lon="-0.36795">
        <ele>7</ele>
      </trkpt>
      <trkpt lat="49.32597" lon="-0.37065">
        <ele>5.9</ele>
      </trkpt>
      <trkpt lat="49.32619" lon="-0.37107">
        <ele>5.2</ele>
      </trkpt>
      <trkpt lat="49.32687" lon="-0.37354">
        <ele>4.5</ele>
      </trkpt>
      <trkpt lat="49.32857" lon="-0.37944">
        <ele>5.1</ele>
      </trkpt>
      <trkpt lat="49.32694" lon="-0.38063">
        <ele>10</ele>
      </trkpt>
      <trkpt lat="49.32677" lon="-0.38072">
        <ele>10</ele>
      </trkpt>
    </trkseg>
  </trk>
</gpx>